Penticton Airport
CYYF : now visible

Airfield :











YOU CAN JOIN US ON...

 
LOGIN :

Register | Disclaimer

   EN    FR    IT 

 









Legend :    VFR   Marginal VFR   IFR   Intensive IFR   Very Intensive IFR
Visi :
Ceiling :
>= 8 km
>= 3000ft
5 to 8 km
1000 to 3000 ft
1500m to 5 km
500 to 1000 ft
800 to 1500m
200 to 500 ft
< 800m
< 200 ft
Symbols :   Thunderstorms  Fog  Heavy snow  Heavy precipitations  Wind > 20 kt







- Airport Elevation : 1129 ft
- IATA code : YYF


CYYF - Penticton

CURRENT METAR :
  • 260300Z 32005KT 15SM VCSH BKN080TCU BKN120 20/10 A3009 RMK TCU5AC1 SLP191 DENSITY ALT 1800FT

EXPIRED METARs :
  • 260200Z 18003KT 15SM SCT080TCU BKN120 21/11 A3008 RMK TCU4AC1 SH N SLP186 DENSITY ALT 1900FT
  • 260100Z 26005KT 15SM BKN075TCU BKN110 22/09 A3007 RMK TCU5AC1 SLP183 DENSITY ALT 2000FT
  • 260029Z 05003KT 350V080 15SM SCT070TCU BKN100 BKN220 22/08 A3007 RMK TCU3AC2CI1 SLP184 DENSITY ALT 2100FT

TAF TAF CYYF
Valid from the 26 at 01:00 until the 26 at 13:00 UTC


260038Z 2601/2613 VRB03KT P6SM SCT080 BKN100
TEMPO 2601/2606 BKN080
FM260600 34005KT P6SM SCT080 RMK NXT FCST BY 260700Z
No reported NOTAMs for that airfield.



MET'MAP, your aeronautical weather chart ! - Copyright ORBIFLY December 2007 - Disclaimer

ORBIFLY MET'MAP TEAM :

Programming & Development : Alexandra Zaïnal
Concept & Development : Baudouin d'Aumeries
Co-Development & Prog : Marc-Olivier Méhu
Technical & hardware support : Manuel Goepfert

Contact : metmap@orbifly.com




SOURCES & CREDITS :

   NOAA       Earth
Advisory